Francisco Sa, Brazil
Current Conditions -  °F | °C
As of 1:00 AM on Friday 19 Dec 2014 (Local Time) from SBMK Reporting Station
Clear Clear  
Wind Chill: 73°   Ceiling: Unl
Heat Index: 73°   Visibility: 6mi
Dew Point: 64°   Wind: 5mph
Humidity: 73%   Direction: 70°ENE
Pressure: 29.94"   Gusts: NA
Location:  16.47°S, 43.49°W
Report Text: SBMK 190300Z 07004KT CAVOK 23/18 Q1014
Loading
Personal Weather Stations






























Interactive Weather Map New forecast layout! Learn more

10-Day Weather Forecast

Advertisements
Track Severe Weather on mobile